sensor_id;sensor_type;location;lat;lon;timestamp;pressure;altitude;pressure_sealevel;temperature;humidity
15634;BME280;14654;48.898;8.308;2023-06-22T00:01:01;100171.91;;;24.18;97.22
15634;BME280;14654;48.898;8.308;2023-06-22T00:03:26;100165.13;;;24.14;99.01
15634;BME280;14654;48.898;8.308;2023-06-22T00:05:52;100164.41;;;23.99;100.00
15634;BME280;14654;48.898;8.308;2023-06-22T00:08:19;100169.78;;;23.70;100.00
15634;BME280;14654;48.898;8.308;2023-06-22T00:10:45;100171.56;;;23.56;100.00
15634;BME280;14654;48.898;8.308;2023-06-22T00:13:12;100217.25;;;23.44;100.00
15634;BME280;14654;48.898;8.308;2023-06-22T00:15:39;100270.56;;;23.36;100.00
15634;BME280;14654;48.898;8.308;2023-06-22T00:18:06;100351.72;;;23.33;100.00
15634;BME280;14654;48.898;8.308;2023-06-22T00:20:32;100428.50;;;23.29;100.00
15634;BME280;14654;48.898;8.308;2023-06-22T00:22:59;100456.53;;;23.32;100.00
15634;BME280;14654;48.898;8.308;2023-06-22T00:25:25;100431.88;;;23.32;100.00
15634;BME280;14654;48.898;8.308;2023-06-22T00:27:51;100321.75;;;23.34;100.00
15634;BME280;14654;48.898;8.308;2023-06-22T00:30:16;100192.66;;;21.67;100.00
15634;BME280;14654;48.898;8.308;2023-06-22T00:32:43;100145.88;;;20.74;100.00
15634;BME280;14654;48.898;8.308;2023-06-22T00:35:08;100165.28;;;20.55;100.00
15634;BME280;14654;48.898;8.308;2023-06-22T00:37:35;100171.38;;;20.56;100.00
15634;BME280;14654;48.898;8.308;2023-06-22T00:40:01;100188.78;;;20.59;100.00
15634;BME280;14654;48.898;8.308;2023-06-22T00:42:27;100194.91;;;20.41;100.00
15634;BME280;14654;48.898;8.308;2023-06-22T00:44:52;100200.41;;;20.37;100.00
15634;BME280;14654;48.898;8.308;2023-06-22T00:47:17;100214.09;;;20.26;100.00
15634;BME280;14654;48.898;8.308;2023-06-22T00:49:44;100221.28;;;20.22;100.00
15634;BME280;14654;48.898;8.308;2023-06-22T00:52:10;100219.88;;;20.33;100.00
15634;BME280;14654;48.898;8.308;2023-06-22T00:54:40;100227.84;;;20.14;100.00
15634;BME280;14654;48.898;8.308;2023-06-22T00:57:09;100227.22;;;19.91;100.00
15634;BME280;14654;48.898;8.308;2023-06-22T00:59:36;100226.03;;;19.97;100.00
15634;BME280;14654;48.898;8.308;2023-06-22T01:02:02;100237.28;;;20.00;100.00
15634;BME280;14654;48.898;8.308;2023-06-22T01:04:34;100233.78;;;20.00;100.00
15634;BME280;14654;48.898;8.308;2023-06-22T01:07:25;100227.56;;;20.02;100.00
15634;BME280;14654;48.898;8.308;2023-06-22T01:10:06;100234.03;;;19.95;100.00
15634;BME280;14654;48.898;8.308;2023-06-22T01:12:34;100232.03;;;20.18;100.00
15634;BME280;14654;48.898;8.308;2023-06-22T01:15:31;100231.75;;;19.87;100.00
15634;BME280;14654;48.898;8.308;2023-06-22T01:17:59;100232.78;;;19.83;100.00
15634;BME280;14654;48.898;8.308;2023-06-22T01:20:25;100242.59;;;19.79;100.00
15634;BME280;14654;48.898;8.308;2023-06-22T01:23:11;100235.75;;;19.77;100.00
15634;BME280;14654;48.898;8.308;2023-06-22T01:25:59;100247.56;;;19.49;100.00
15634;BME280;14654;48.898;8.308;2023-06-22T01:28:49;100251.59;;;19.56;100.00
15634;BME280;14654;48.898;8.308;2023-06-22T01:31:20;100249.09;;;19.53;100.00
15634;BME280;14654;48.898;8.308;2023-06-22T01:33:50;100250.09;;;19.50;100.00
15634;BME280;14654;48.898;8.308;2023-06-22T01:36:17;100246.63;;;19.50;100.00
15634;BME280;14654;48.898;8.308;2023-06-22T01:38:44;100242.09;;;19.54;100.00
15634;BME280;14654;48.898;8.308;2023-06-22T01:41:11;100245.63;;;19.53;100.00
15634;BME280;14654;48.898;8.308;2023-06-22T01:43:37;100241.72;;;19.61;100.00
15634;BME280;14654;48.898;8.308;2023-06-22T01:46:03;100233.00;;;19.42;100.00
15634;BME280;14654;48.898;8.308;2023-06-22T01:48:29;100229.47;;;19.43;100.00
15634;BME280;14654;48.898;8.308;2023-06-22T01:50:55;100228.53;;;19.44;100.00
15634;BME280;14654;48.898;8.308;2023-06-22T01:53:22;100227.97;;;19.37;100.00
15634;BME280;14654;48.898;8.308;2023-06-22T01:55:48;100232.53;;;19.33;100.00
15634;BME280;14654;48.898;8.308;2023-06-22T01:58:13;100234.72;;;19.24;100.00
15634;BME280;14654;48.898;8.308;2023-06-22T02:00:42;100224.28;;;19.22;100.00
15634;BME280;14654;48.898;8.308;2023-06-22T02:03:12;100229.63;;;19.21;100.00
15634;BME280;14654;48.898;8.308;2023-06-22T02:05:47;100221.75;;;19.21;100.00
15634;BME280;14654;48.898;8.308;2023-06-22T02:08:20;100204.94;;;19.06;100.00
15634;BME280;14654;48.898;8.308;2023-06-22T02:10:46;100213.66;;;19.06;100.00
15634;BME280;14654;48.898;8.308;2023-06-22T02:13:14;100211.16;;;19.03;100.00
15634;BME280;14654;48.898;8.308;2023-06-22T02:15:41;100219.03;;;19.03;100.00
15634;BME280;14654;48.898;8.308;2023-06-22T02:18:07;100209.13;;;19.10;100.00
15634;BME280;14654;48.898;8.308;2023-06-22T02:20:32;100206.50;;;19.10;100.00
15634;BME280;14654;48.898;8.308;2023-06-22T02:22:57;100211.13;;;19.04;100.00
15634;BME280;14654;48.898;8.308;2023-06-22T02:25:24;100213.44;;;19.11;100.00
15634;BME280;14654;48.898;8.308;2023-06-22T02:27:49;100207.72;;;19.02;100.00
15634;BME280;14654;48.898;8.308;2023-06-22T02:30:15;100211.34;;;19.19;100.00
15634;BME280;14654;48.898;8.308;2023-06-22T02:32:41;100206.72;;;19.05;100.00
15634;BME280;14654;48.898;8.308;2023-06-22T02:35:08;100206.44;;;18.91;100.00
15634;BME280;14654;48.898;8.308;2023-06-22T02:37:35;100211.59;;;18.73;100.00
15634;BME280;14654;48.898;8.308;2023-06-22T02:40:05;100206.59;;;18.87;100.00
15634;BME280;14654;48.898;8.308;2023-06-22T02:42:32;100203.81;;;18.91;100.00
15634;BME280;14654;48.898;8.308;2023-06-22T02:44:57;100194.13;;;18.93;100.00
15634;BME280;14654;48.898;8.308;2023-06-22T02:47:23;100196.22;;;18.84;100.00
15634;BME280;14654;48.898;8.308;2023-06-22T02:49:48;100184.81;;;18.85;100.00
15634;BME280;14654;48.898;8.308;2023-06-22T02:52:13;100179.56;;;19.06;100.00
15634;BME280;14654;48.898;8.308;2023-06-22T02:54:39;100189.69;;;18.95;100.00
15634;BME280;14654;48.898;8.308;2023-06-22T02:57:04;100168.75;;;18.93;100.00
15634;BME280;14654;48.898;8.308;2023-06-22T02:59:30;100163.72;;;18.88;100.00
15634;BME280;14654;48.898;8.308;2023-06-22T03:01:55;100158.16;;;18.76;100.00
15634;BME280;14654;48.898;8.308;2023-06-22T03:04:21;100149.91;;;18.85;100.00
15634;BME280;14654;48.898;8.308;2023-06-22T03:06:46;100153.09;;;18.92;100.00
15634;BME280;14654;48.898;8.308;2023-06-22T03:09:16;100142.88;;;18.85;100.00
15634;BME280;14654;48.898;8.308;2023-06-22T03:11:42;100149.94;;;18.83;100.00
15634;BME280;14654;48.898;8.308;2023-06-22T03:14:07;100152.13;;;18.94;100.00
15634;BME280;14654;48.898;8.308;2023-06-22T03:16:33;100149.81;;;18.86;100.00
15634;BME280;14654;48.898;8.308;2023-06-22T03:18:58;100156.63;;;18.91;100.00
15634;BME280;14654;48.898;8.308;2023-06-22T03:21:27;100159.25;;;18.91;100.00
15634;BME280;14654;48.898;8.308;2023-06-22T03:23:53;100147.94;;;18.90;100.00
15634;BME280;14654;48.898;8.308;2023-06-22T03:26:18;100144.44;;;18.89;100.00
15634;BME280;14654;48.898;8.308;2023-06-22T03:28:43;100155.78;;;18.90;100.00
15634;BME280;14654;48.898;8.308;2023-06-22T03:31:09;100143.59;;;18.89;100.00
15634;BME280;14654;48.898;8.308;2023-06-22T03:33:34;100145.13;;;18.93;100.00
15634;BME280;14654;48.898;8.308;2023-06-22T03:35:59;100139.13;;;18.91;100.00
15634;BME280;14654;48.898;8.308;2023-06-22T03:38:25;100146.41;;;18.84;100.00
15634;BME280;14654;48.898;8.308;2023-06-22T03:40:50;100146.28;;;18.87;100.00
15634;BME280;14654;48.898;8.308;2023-06-22T03:43:15;100138.34;;;18.89;100.00
15634;BME280;14654;48.898;8.308;2023-06-22T03:45:41;100134.16;;;18.85;100.00
15634;BME280;14654;48.898;8.308;2023-06-22T03:48:06;100121.97;;;18.84;100.00
15634;BME280;14654;48.898;8.308;2023-06-22T03:50:31;100127.88;;;18.89;100.00
15634;BME280;14654;48.898;8.308;2023-06-22T03:52:57;100134.88;;;18.88;100.00
15634;BME280;14654;48.898;8.308;2023-06-22T03:55:22;100133.72;;;18.96;100.00
15634;BME280;14654;48.898;8.308;2023-06-22T03:57:47;100133.19;;;19.07;100.00
15634;BME280;14654;48.898;8.308;2023-06-22T04:00:13;100130.31;;;18.92;100.00
15634;BME280;14654;48.898;8.308;2023-06-22T04:02:41;100128.72;;;18.70;100.00
15634;BME280;14654;48.898;8.308;2023-06-22T04:05:08;100115.31;;;18.77;100.00
15634;BME280;14654;48.898;8.308;2023-06-22T04:07:33;100115.16;;;18.80;100.00
15634;BME280;14654;48.898;8.308;2023-06-22T04:09:59;100124.31;;;18.71;100.00
15634;BME280;14654;48.898;8.308;2023-06-22T04:12:24;100116.31;;;18.74;100.00
15634;BME280;14654;48.898;8.308;2023-06-22T04:14:49;100113.97;;;18.87;100.00
15634;BME280;14654;48.898;8.308;2023-06-22T04:17:15;100113.91;;;19.08;100.00
15634;BME280;14654;48.898;8.308;2023-06-22T04:19:40;100116.16;;;19.34;100.00
15634;BME280;14654;48.898;8.308;2023-06-22T04:22:06;100117.53;;;19.42;100.00
15634;BME280;14654;48.898;8.308;2023-06-22T04:24:33;100113.47;;;19.54;100.00
15634;BME280;14654;48.898;8.308;2023-06-22T04:26:58;100110.38;;;19.63;100.00
15634;BME280;14654;48.898;8.308;2023-06-22T04:29:25;100111.78;;;19.53;100.00
15634;BME280;14654;48.898;8.308;2023-06-22T04:31:54;100104.75;;;19.36;100.00
15634;BME280;14654;48.898;8.308;2023-06-22T04:34:21;100101.56;;;19.46;100.00
15634;BME280;14654;48.898;8.308;2023-06-22T04:36:46;100104.84;;;19.69;100.00
15634;BME280;14654;48.898;8.308;2023-06-22T04:39:11;100109.38;;;19.83;100.00
15634;BME280;14654;48.898;8.308;2023-06-22T04:41:38;100101.78;;;19.96;100.00
15634;BME280;14654;48.898;8.308;2023-06-22T04:44:16;100098.66;;;20.05;100.00
15634;BME280;14654;48.898;8.308;2023-06-22T04:46:51;100090.84;;;20.21;100.00
15634;BME280;14654;48.898;8.308;2023-06-22T04:49:25;100101.59;;;20.17;100.00
15634;BME280;14654;48.898;8.308;2023-06-22T04:52:02;100101.91;;;20.10;100.00
15634;BME280;14654;48.898;8.308;2023-06-22T04:54:27;100088.34;;;20.02;100.00
15634;BME280;14654;48.898;8.308;2023-06-22T04:56:53;100081.94;;;20.24;100.00
15634;BME280;14654;48.898;8.308;2023-06-22T04:59:22;100091.78;;;20.20;100.00
15634;BME280;14654;48.898;8.308;2023-06-22T05:01:57;100081.91;;;20.41;100.00
15634;BME280;14654;48.898;8.308;2023-06-22T05:04:24;100087.59;;;20.83;100.00
15634;BME280;14654;48.898;8.308;2023-06-22T05:06:51;100079.69;;;20.50;100.00
15634;BME280;14654;48.898;8.308;2023-06-22T05:09:16;100073.28;;;20.71;100.00
15634;BME280;14654;48.898;8.308;2023-06-22T05:11:42;100075.72;;;20.43;100.00
15634;BME280;14654;48.898;8.308;2023-06-22T05:14:08;100077.16;;;20.32;100.00
15634;BME280;14654;48.898;8.308;2023-06-22T05:16:33;100071.91;;;20.32;100.00
15634;BME280;14654;48.898;8.308;2023-06-22T05:18:59;100068.03;;;20.88;100.00
15634;BME280;14654;48.898;8.308;2023-06-22T05:21:26;100060.22;;;20.70;100.00
15634;BME280;14654;48.898;8.308;2023-06-22T05:23:52;100064.16;;;20.79;100.00
15634;BME280;14654;48.898;8.308;2023-06-22T05:26:19;100063.69;;;21.19;100.00
15634;BME280;14654;48.898;8.308;2023-06-22T05:28:45;100066.59;;;20.82;100.00
15634;BME280;14654;48.898;8.308;2023-06-22T05:31:12;100062.25;;;20.49;100.00
15634;BME280;14654;48.898;8.308;2023-06-22T05:33:38;100066.91;;;20.44;100.00
15634;BME280;14654;48.898;8.308;2023-06-22T05:36:03;100071.47;;;20.40;100.00
15634;BME280;14654;48.898;8.308;2023-06-22T05:38:29;100063.78;;;20.69;100.00
15634;BME280;14654;48.898;8.308;2023-06-22T05:40:54;100067.72;;;20.94;100.00
15634;BME280;14654;48.898;8.308;2023-06-22T05:43:20;100061.28;;;20.50;100.00
15634;BME280;14654;48.898;8.308;2023-06-22T05:45:45;100055.81;;;20.54;100.00
15634;BME280;14654;48.898;8.308;2023-06-22T05:48:10;100060.00;;;20.91;100.00
15634;BME280;14654;48.898;8.308;2023-06-22T05:50:36;100072.19;;;21.24;100.00
15634;BME280;14654;48.898;8.308;2023-06-22T05:53:02;100077.81;;;21.78;100.00
15634;BME280;14654;48.898;8.308;2023-06-22T05:55:27;100080.13;;;22.14;100.00
15634;BME280;14654;48.898;8.308;2023-06-22T05:57:53;100070.47;;;21.23;100.00
15634;BME280;14654;48.898;8.308;2023-06-22T06:00:18;100073.75;;;21.42;100.00
15634;BME280;14654;48.898;8.308;2023-06-22T06:02:44;100062.56;;;21.39;100.00
15634;BME280;14654;48.898;8.308;2023-06-22T06:05:11;100070.16;;;21.29;100.00
15634;BME280;14654;48.898;8.308;2023-06-22T06:07:39;100073.81;;;21.57;100.00
15634;BME280;14654;48.898;8.308;2023-06-22T06:10:04;100073.91;;;21.55;100.00
15634;BME280;14654;48.898;8.308;2023-06-22T06:12:31;100070.75;;;21.48;100.00
15634;BME280;14654;48.898;8.308;2023-06-22T06:14:56;100059.00;;;21.70;100.00
15634;BME280;14654;48.898;8.308;2023-06-22T06:17:22;100053.00;;;21.97;100.00
15634;BME280;14654;48.898;8.308;2023-06-22T06:19:47;100053.03;;;22.26;100.00
15634;BME280;14654;48.898;8.308;2023-06-22T06:22:12;100044.09;;;22.29;100.00
15634;BME280;14654;48.898;8.308;2023-06-22T06:24:38;100050.31;;;22.57;100.00
15634;BME280;14654;48.898;8.308;2023-06-22T06:27:03;100037.59;;;22.91;100.00
15634;BME280;14654;48.898;8.308;2023-06-22T06:29:30;100042.00;;;23.18;100.00
15634;BME280;14654;48.898;8.308;2023-06-22T06:31:55;100041.03;;;23.33;100.00
15634;BME280;14654;48.898;8.308;2023-06-22T06:34:21;100037.88;;;23.41;100.00
15634;BME280;14654;48.898;8.308;2023-06-22T06:36:47;100044.47;;;23.87;100.00
15634;BME280;14654;48.898;8.308;2023-06-22T06:39:12;100037.91;;;23.93;100.00
15634;BME280;14654;48.898;8.308;2023-06-22T06:41:38;100049.03;;;23.98;100.00
15634;BME280;14654;48.898;8.308;2023-06-22T06:44:03;100040.53;;;24.44;100.00
15634;BME280;14654;48.898;8.308;2023-06-22T06:46:29;100033.25;;;24.85;100.00
15634;BME280;14654;48.898;8.308;2023-06-22T06:48:54;100034.63;;;25.02;100.00
15634;BME280;14654;48.898;8.308;2023-06-22T06:51:19;100034.41;;;24.68;100.00
15634;BME280;14654;48.898;8.308;2023-06-22T06:53:45;100029.06;;;24.70;100.00
15634;BME280;14654;48.898;8.308;2023-06-22T06:56:10;100027.88;;;24.98;100.00
15634;BME280;14654;48.898;8.308;2023-06-22T06:58:36;100027.78;;;25.00;100.00
15634;BME280;14654;48.898;8.308;2023-06-22T07:01:01;100031.19;;;25.13;100.00
15634;BME280;14654;48.898;8.308;2023-06-22T07:03:28;100025.72;;;25.27;100.00
15634;BME280;14654;48.898;8.308;2023-06-22T07:05:53;100024.97;;;25.50;100.00
15634;BME280;14654;48.898;8.308;2023-06-22T07:08:19;100022.00;;;25.77;100.00
15634;BME280;14654;48.898;8.308;2023-06-22T07:10:44;100008.03;;;25.75;100.00
15634;BME280;14654;48.898;8.308;2023-06-22T07:13:09;100014.66;;;25.81;100.00
15634;BME280;14654;48.898;8.308;2023-06-22T07:15:35;100010.06;;;26.06;100.00
15634;BME280;14654;48.898;8.308;2023-06-22T07:18:00;100012.03;;;26.26;100.00
15634;BME280;14654;48.898;8.308;2023-06-22T07:20:25;100002.16;;;26.28;100.00
15634;BME280;14654;48.898;8.308;2023-06-22T07:22:51;99988.41;;;26.00;100.00
15634;BME280;14654;48.898;8.308;2023-06-22T07:25:16;100004.28;;;26.35;100.00
15634;BME280;14654;48.898;8.308;2023-06-22T07:27:46;100018.09;;;26.84;100.00
15634;BME280;14654;48.898;8.308;2023-06-22T07:30:13;100006.03;;;27.12;100.00
15634;BME280;14654;48.898;8.308;2023-06-22T07:32:38;99997.06;;;27.67;100.00
15634;BME280;14654;48.898;8.308;2023-06-22T07:35:04;99993.94;;;27.41;100.00
15634;BME280;14654;48.898;8.308;2023-06-22T07:37:30;99994.75;;;27.62;100.00
15634;BME280;14654;48.898;8.308;2023-06-22T07:39:56;99997.72;;;27.59;100.00
15634;BME280;14654;48.898;8.308;2023-06-22T07:42:27;100006.13;;;27.64;97.10
15634;BME280;14654;48.898;8.308;2023-06-22T07:44:54;100016.00;;;27.83;100.00
15634;BME280;14654;48.898;8.308;2023-06-22T07:47:20;100008.69;;;28.07;98.00
15634;BME280;14654;48.898;8.308;2023-06-22T07:49:48;100013.91;;;28.49;98.22
15634;BME280;14654;48.898;8.308;2023-06-22T07:52:13;100016.75;;;27.95;92.34
15634;BME280;14654;48.898;8.308;2023-06-22T07:54:38;100020.50;;;28.14;96.71
15634;BME280;14654;48.898;8.308;2023-06-22T07:57:04;100015.59;;;28.09;95.94
15634;BME280;14654;48.898;8.308;2023-06-22T07:59:29;100017.00;;;28.13;96.28
15634;BME280;14654;48.898;8.308;2023-06-22T08:01:55;100022.28;;;28.35;96.59
15634;BME280;14654;48.898;8.308;2023-06-22T08:04:20;100016.38;;;28.41;93.94
15634;BME280;14654;48.898;8.308;2023-06-22T08:06:46;100022.91;;;28.78;93.81
15634;BME280;14654;48.898;8.308;2023-06-22T08:09:11;100024.56;;;28.69;93.42
15634;BME280;14654;48.898;8.308;2023-06-22T08:11:37;100023.78;;;28.78;93.69
15634;BME280;14654;48.898;8.308;2023-06-22T08:14:03;100047.59;;;28.80;91.23
15634;BME280;14654;48.898;8.308;2023-06-22T08:16:28;100068.09;;;28.89;92.57
15634;BME280;14654;48.898;8.308;2023-06-22T08:18:53;100074.56;;;29.16;91.97
15634;BME280;14654;48.898;8.308;2023-06-22T08:21:20;100085.91;;;29.08;90.72
15634;BME280;14654;48.898;8.308;2023-06-22T08:23:45;100094.19;;;29.64;89.94
15634;BME280;14654;48.898;8.308;2023-06-22T08:26:10;100097.22;;;29.99;88.02
15634;BME280;14654;48.898;8.308;2023-06-22T08:28:36;100099.91;;;30.36;86.70
15634;BME280;14654;48.898;8.308;2023-06-22T08:31:02;100092.84;;;30.73;86.10
15634;BME280;14654;48.898;8.308;2023-06-22T08:33:28;100071.88;;;30.22;85.34
15634;BME280;14654;48.898;8.308;2023-06-22T08:35:55;100049.69;;;30.96;81.15
15634;BME280;14654;48.898;8.308;2023-06-22T08:38:21;100035.09;;;31.26;82.92
15634;BME280;14654;48.898;8.308;2023-06-22T08:40:46;100024.53;;;31.69;80.61
15634;BME280;14654;48.898;8.308;2023-06-22T08:43:12;100024.53;;;31.96;80.27
15634;BME280;14654;48.898;8.308;2023-06-22T08:45:37;100030.41;;;32.34;79.06
15634;BME280;14654;48.898;8.308;2023-06-22T08:48:02;100028.66;;;31.37;80.38
15634;BME280;14654;48.898;8.308;2023-06-22T08:50:28;100044.03;;;30.53;80.35
15634;BME280;14654;48.898;8.308;2023-06-22T08:52:53;100049.56;;;31.60;79.42
15634;BME280;14654;48.898;8.308;2023-06-22T08:55:18;100036.56;;;32.00;76.74
15634;BME280;14654;48.898;8.308;2023-06-22T08:57:44;100045.25;;;31.05;79.73
15634;BME280;14654;48.898;8.308;2023-06-22T09:00:10;100035.34;;;31.15;82.10
15634;BME280;14654;48.898;8.308;2023-06-22T09:02:43;100041.28;;;31.71;76.95
15634;BME280;14654;48.898;8.308;2023-06-22T09:05:08;100039.31;;;31.73;78.05
15634;BME280;14654;48.898;8.308;2023-06-22T09:07:34;100035.50;;;31.84;80.71
15634;BME280;14654;48.898;8.308;2023-06-22T09:09:59;100027.25;;;32.04;80.75
15634;BME280;14654;48.898;8.308;2023-06-22T09:12:25;100036.47;;;32.10;81.01
15634;BME280;14654;48.898;8.308;2023-06-22T09:14:52;100034.84;;;32.17;79.25
15634;BME280;14654;48.898;8.308;2023-06-22T09:17:18;100041.66;;;32.11;82.07
15634;BME280;14654;48.898;8.308;2023-06-22T09:19:44;100036.38;;;31.93;82.69
15634;BME280;14654;48.898;8.308;2023-06-22T09:22:09;100031.16;;;31.83;82.91
15634;BME280;14654;48.898;8.308;2023-06-22T09:24:34;100015.63;;;31.60;82.89
15634;BME280;14654;48.898;8.308;2023-06-22T09:27:00;100006.22;;;31.12;81.26
15634;BME280;14654;48.898;8.308;2023-06-22T09:29:25;99995.78;;;31.19;82.47
15634;BME280;14654;48.898;8.308;2023-06-22T09:31:50;99994.69;;;31.29;84.09
15634;BME280;14654;48.898;8.308;2023-06-22T09:34:18;99982.59;;;31.43;83.94
15634;BME280;14654;48.898;8.308;2023-06-22T09:36:48;99970.75;;;31.72;82.17
15634;BME280;14654;48.898;8.308;2023-06-22T09:39:14;99965.19;;;32.00;81.46
15634;BME280;14654;48.898;8.308;2023-06-22T09:41:39;99956.75;;;32.30;81.62
15634;BME280;14654;48.898;8.308;2023-06-22T09:44:04;99948.13;;;32.69;79.13
15634;BME280;14654;48.898;8.308;2023-06-22T09:46:30;99959.84;;;32.93;75.91
15634;BME280;14654;48.898;8.308;2023-06-22T09:48:55;99936.38;;;32.62;76.14
15634;BME280;14654;48.898;8.308;2023-06-22T09:51:20;99925.25;;;32.23;75.92
15634;BME280;14654;48.898;8.308;2023-06-22T09:53:47;99925.53;;;31.08;77.60
15634;BME280;14654;48.898;8.308;2023-06-22T09:56:12;99936.03;;;31.28;78.67
15634;BME280;14654;48.898;8.308;2023-06-22T09:58:41;99939.69;;;31.53;77.65
15634;BME280;14654;48.898;8.308;2023-06-22T10:01:06;99944.56;;;31.58;79.81
15634;BME280;14654;48.898;8.308;2023-06-22T10:03:32;99952.72;;;31.83;80.75
15634;BME280;14654;48.898;8.308;2023-06-22T10:05:57;99961.50;;;32.01;81.93
15634;BME280;14654;48.898;8.308;2023-06-22T10:08:23;99946.03;;;32.30;78.60
15634;BME280;14654;48.898;8.308;2023-06-22T10:10:48;99950.88;;;32.26;77.79
15634;BME280;14654;48.898;8.308;2023-06-22T10:13:13;99952.06;;;32.32;77.36
15634;BME280;14654;48.898;8.308;2023-06-22T10:15:40;99940.22;;;32.43;78.60
15634;BME280;14654;48.898;8.308;2023-06-22T10:18:05;99944.75;;;32.42;78.20
15634;BME280;14654;48.898;8.308;2023-06-22T10:20:31;99934.53;;;32.46;77.97
15634;BME280;14654;48.898;8.308;2023-06-22T10:22:56;99936.56;;;32.52;77.54
15634;BME280;14654;48.898;8.308;2023-06-22T10:25:22;99934.50;;;32.37;79.16
15634;BME280;14654;48.898;8.308;2023-06-22T10:27:47;99941.41;;;31.97;79.34
15634;BME280;14654;48.898;8.308;2023-06-22T10:30:13;99942.03;;;31.83;81.55
15634;BME280;14654;48.898;8.308;2023-06-22T10:32:39;99935.56;;;32.02;81.95
15634;BME280;14654;48.898;8.308;2023-06-22T10:35:05;99929.75;;;32.06;82.16
15634;BME280;14654;48.898;8.308;2023-06-22T10:37:30;99925.28;;;31.72;82.49
15634;BME280;14654;48.898;8.308;2023-06-22T10:39:56;99918.81;;;32.00;82.39
15634;BME280;14654;48.898;8.308;2023-06-22T10:42:21;99923.13;;;31.50;81.67
15634;BME280;14654;48.898;8.308;2023-06-22T10:44:46;99916.09;;;31.48;83.25
15634;BME280;14654;48.898;8.308;2023-06-22T10:47:12;99917.06;;;31.39;83.60
15634;BME280;14654;48.898;8.308;2023-06-22T10:49:38;99921.91;;;31.44;82.16
15634;BME280;14654;48.898;8.308;2023-06-22T10:52:04;99923.38;;;31.65;81.35
15634;BME280;14654;48.898;8.308;2023-06-22T10:54:30;99925.69;;;31.07;80.76
15634;BME280;14654;48.898;8.308;2023-06-22T10:56:55;99916.19;;;31.39;81.43
15634;BME280;14654;48.898;8.308;2023-06-22T10:59:20;99916.16;;;31.57;81.27
15634;BME280;14654;48.898;8.308;2023-06-22T11:01:48;99924.84;;;31.59;80.23
15634;BME280;14654;48.898;8.308;2023-06-22T11:04:14;99925.56;;;31.69;80.62
15634;BME280;14654;48.898;8.308;2023-06-22T11:06:39;99923.53;;;32.06;80.12
15634;BME280;14654;48.898;8.308;2023-06-22T11:09:04;99918.69;;;32.01;77.93
15634;BME280;14654;48.898;8.308;2023-06-22T11:11:30;99926.66;;;31.93;79.02
15634;BME280;14654;48.898;8.308;2023-06-22T11:13:55;99927.59;;;32.18;78.40
15634;BME280;14654;48.898;8.308;2023-06-22T11:16:20;99912.19;;;32.12;79.05
15634;BME280;14654;48.898;8.308;2023-06-22T11:18:45;99911.34;;;31.69;78.10
15634;BME280;14654;48.898;8.308;2023-06-22T11:21:11;99901.31;;;32.05;78.25
15634;BME280;14654;48.898;8.308;2023-06-22T11:23:36;99909.28;;;31.89;78.09
15634;BME280;14654;48.898;8.308;2023-06-22T11:26:01;99914.28;;;31.57;78.27
15634;BME280;14654;48.898;8.308;2023-06-22T11:28:27;99910.38;;;31.70;78.42
15634;BME280;14654;48.898;8.308;2023-06-22T11:30:52;99906.16;;;31.32;78.43
15634;BME280;14654;48.898;8.308;2023-06-22T11:33:18;99896.66;;;31.38;79.57
15634;BME280;14654;48.898;8.308;2023-06-22T11:35:43;99905.28;;;31.24;79.91
15634;BME280;14654;48.898;8.308;2023-06-22T11:38:09;99907.34;;;31.12;79.26
15634;BME280;14654;48.898;8.308;2023-06-22T11:40:34;99904.91;;;31.19;78.28
15634;BME280;14654;48.898;8.308;2023-06-22T11:42:59;99913.53;;;31.39;78.70
15634;BME280;14654;48.898;8.308;2023-06-22T11:45:25;99930.63;;;31.46;78.88
15634;BME280;14654;48.898;8.308;2023-06-22T11:47:50;99937.56;;;31.65;77.86
15634;BME280;14654;48.898;8.308;2023-06-22T11:50:15;99930.50;;;31.90;77.66
15634;BME280;14654;48.898;8.308;2023-06-22T11:52:41;99936.78;;;32.16;77.68
15634;BME280;14654;48.898;8.308;2023-06-22T11:55:06;99927.28;;;32.30;76.89
15634;BME280;14654;48.898;8.308;2023-06-22T11:57:36;99918.78;;;32.34;75.95
15634;BME280;14654;48.898;8.308;2023-06-22T12:00:03;99929.34;;;32.44;75.58
15634;BME280;14654;48.898;8.308;2023-06-22T12:02:49;99931.84;;;32.71;76.68
15634;BME280;14654;48.898;8.308;2023-06-22T12:05:16;99933.25;;;32.91;76.78
15634;BME280;14654;48.898;8.308;2023-06-22T12:07:41;99932.72;;;33.12;76.47
15634;BME280;14654;48.898;8.308;2023-06-22T12:10:07;99927.81;;;33.33;77.08
15634;BME280;14654;48.898;8.308;2023-06-22T12:12:32;99926.75;;;33.58;76.10
15634;BME280;14654;48.898;8.308;2023-06-22T12:14:58;99930.22;;;33.76;77.83
15634;BME280;14654;48.898;8.308;2023-06-22T12:17:26;99920.88;;;33.63;76.58
15634;BME280;14654;48.898;8.308;2023-06-22T12:19:51;99919.75;;;33.33;75.15
15634;BME280;14654;48.898;8.308;2023-06-22T12:22:16;99918.94;;;33.32;75.42
15634;BME280;14654;48.898;8.308;2023-06-22T12:24:41;99929.00;;;33.22;75.34
15634;BME280;14654;48.898;8.308;2023-06-22T12:27:07;99941.72;;;33.28;75.62
15634;BME280;14654;48.898;8.308;2023-06-22T12:29:32;99959.16;;;33.24;76.13
15634;BME280;14654;48.898;8.308;2023-06-22T12:31:57;99944.25;;;33.13;76.92
15634;BME280;14654;48.898;8.308;2023-06-22T12:34:23;99958.34;;;32.98;78.04
15634;BME280;14654;48.898;8.308;2023-06-22T12:36:48;99947.97;;;32.87;78.11
15634;BME280;14654;48.898;8.308;2023-06-22T12:39:14;99949.63;;;32.80;79.03
15634;BME280;14654;48.898;8.308;2023-06-22T12:41:40;99941.91;;;32.77;79.42
15634;BME280;14654;48.898;8.308;2023-06-22T12:44:05;99935.75;;;32.85;79.71